createdAt,value
2022-09-02T00:01:38.147Z,18.36
2022-09-02T00:04:11.188Z,18.42
2022-09-02T00:06:39.670Z,18.46
2022-09-02T00:09:09.229Z,18.46
2022-09-02T00:11:39.244Z,17.66
2022-09-02T00:14:10.963Z,18.26
2022-09-02T00:16:39.938Z,18.28
2022-09-02T00:19:12.663Z,18.15
2022-09-02T00:21:40.985Z,18.04
2022-09-02T00:24:09.367Z,18.14
2022-09-02T00:26:38.369Z,18.22
2022-09-02T00:29:07.093Z,18.30
2022-09-02T00:31:36.792Z,18.26
2022-09-02T00:34:05.984Z,18.27
2022-09-02T00:36:35.982Z,18.23
2022-09-02T00:39:05.949Z,18.26
2022-09-02T00:41:34.813Z,18.03
2022-09-02T00:44:06.046Z,17.97
2022-09-02T00:46:35.063Z,17.85
2022-09-02T00:49:07.933Z,17.87
2022-09-02T00:51:43.431Z,17.76
2022-09-02T00:54:13.098Z,17.74
2022-09-02T00:56:43.610Z,17.76
2022-09-02T00:59:16.367Z,17.70
2022-09-02T01:01:44.917Z,17.91
2022-09-02T01:04:14.132Z,17.90
2022-09-02T01:06:44.345Z,17.92
2022-09-02T01:09:15.277Z,17.94
2022-09-02T01:11:48.057Z,17.87
2022-09-02T01:14:17.135Z,17.80
2022-09-02T01:16:48.003Z,17.53
2022-09-02T01:19:23.019Z,17.21
2022-09-02T01:21:53.669Z,17.33
2022-09-02T01:24:21.949Z,17.42
2022-09-02T01:26:53.555Z,17.51
2022-09-02T01:29:22.150Z,17.19
2022-09-02T01:31:50.756Z,17.05
2022-09-02T01:34:19.245Z,16.86
2022-09-02T01:36:47.705Z,17.22
2022-09-02T01:39:17.406Z,17.26
2022-09-02T01:41:45.866Z,17.40
2022-09-02T01:44:16.182Z,17.48
2022-09-02T01:46:44.685Z,17.34
2022-09-02T01:49:13.214Z,17.49
2022-09-02T01:51:41.631Z,17.19
2022-09-02T01:54:09.962Z,17.17
2022-09-02T01:56:40.439Z,17.26
2022-09-02T01:59:11.522Z,17.21
2022-09-02T02:01:39.912Z,16.54
2022-09-02T02:04:13.164Z,16.78
2022-09-02T02:06:43.233Z,16.90
2022-09-02T02:09:11.930Z,16.91
2022-09-02T02:11:42.066Z,16.94
2022-09-02T02:14:10.851Z,17.09
2022-09-02T02:16:39.264Z,16.44
2022-09-02T02:19:07.699Z,16.80
2022-09-02T02:21:36.040Z,16.78
2022-09-02T02:24:05.518Z,16.79
2022-09-02T02:26:33.866Z,16.79
2022-09-02T02:29:03.706Z,16.98
2022-09-02T02:31:32.174Z,16.78
2022-09-02T02:34:01.908Z,16.87
2022-09-02T02:36:30.240Z,16.73
2022-09-02T02:38:58.938Z,16.57
2022-09-02T02:41:27.421Z,16.50
2022-09-02T02:43:55.743Z,16.37
2022-09-02T02:46:25.495Z,16.04
2022-09-02T02:48:53.929Z,16.41
2022-09-02T02:51:22.212Z,16.66
2022-09-02T02:53:50.522Z,16.47
2022-09-02T02:56:18.911Z,16.68
2022-09-02T02:58:47.520Z,16.82
2022-09-02T03:01:15.945Z,16.81
2022-09-02T03:03:45.773Z,16.84
2022-09-02T03:06:14.111Z,16.79
2022-09-02T03:08:42.646Z,16.61
2022-09-02T03:11:11.008Z,16.82
2022-09-02T03:13:39.321Z,16.91
2022-09-02T03:16:07.963Z,16.93
2022-09-02T03:18:36.412Z,16.96
2022-09-02T03:21:09.513Z,17.02
2022-09-02T03:23:37.970Z,16.70
2022-09-02T03:26:11.119Z,16.73
2022-09-02T03:28:39.518Z,16.84
2022-09-02T03:31:08.584Z,16.63
2022-09-02T03:33:36.938Z,16.77
2022-09-02T03:36:05.423Z,16.65
2022-09-02T03:38:36.072Z,16.59
2022-09-02T03:41:04.214Z,16.63
2022-09-02T03:43:32.402Z,16.71
2022-09-02T03:46:00.784Z,16.76
2022-09-02T03:48:29.444Z,16.66
2022-09-02T03:50:57.803Z,16.55
2022-09-02T03:53:26.853Z,16.59
2022-09-02T03:55:56.674Z,16.59
2022-09-02T03:58:25.023Z,16.33
2022-09-02T04:00:54.056Z,16.28
2022-09-02T04:03:22.754Z,16.33
2022-09-02T04:05:52.331Z,16.65
2022-09-02T04:08:21.037Z,16.52
2022-09-02T04:10:49.332Z,16.60
2022-09-02T04:13:19.616Z,16.58
2022-09-02T04:15:49.204Z,16.30
2022-09-02T04:18:18.492Z,16.47
2022-09-02T04:20:46.886Z,16.33
2022-09-02T04:23:16.362Z,16.28
2022-09-02T04:25:45.725Z,16.34
2022-09-02T04:28:14.112Z,16.10
2022-09-02T04:30:44.504Z,16.15
2022-09-02T04:33:13.716Z,16.32
2022-09-02T04:35:42.722Z,16.32
2022-09-02T04:38:11.558Z,16.33
2022-09-02T04:40:42.066Z,16.36
2022-09-02T04:43:10.580Z,16.49
2022-09-02T04:45:40.758Z,16.50
2022-09-02T04:48:10.521Z,16.60
2022-09-02T04:50:41.033Z,16.68
2022-09-02T04:53:09.979Z,16.51
2022-09-02T04:55:41.152Z,16.59
2022-09-02T04:58:09.838Z,16.44
2022-09-02T05:00:38.926Z,16.63
2022-09-02T05:03:07.397Z,17.69
2022-09-02T05:05:39.208Z,18.09
2022-09-02T05:08:07.922Z,18.41
2022-09-02T05:10:36.464Z,18.94
2022-09-02T05:13:04.954Z,19.21
2022-09-02T05:15:33.501Z,19.53
2022-09-02T05:18:01.928Z,18.79
2022-09-02T05:20:32.987Z,17.86
2022-09-02T05:23:03.205Z,17.94
2022-09-02T05:25:31.516Z,17.99
2022-09-02T05:27:59.820Z,17.76
2022-09-02T05:30:28.171Z,17.72
2022-09-02T05:32:57.176Z,18.03
2022-09-02T05:35:25.562Z,18.05
2022-09-02T05:37:58.679Z,18.02
2022-09-02T05:40:30.496Z,17.74
2022-09-02T05:42:58.795Z,18.35
2022-09-02T05:45:27.078Z,17.95
2022-09-02T05:47:55.577Z,18.36
2022-09-02T05:50:23.915Z,18.48
2022-09-02T05:52:52.657Z,18.59
2022-09-02T05:55:20.975Z,18.82
2022-09-02T05:57:50.866Z,18.09
2022-09-02T06:00:19.309Z,18.07
2022-09-02T06:02:47.665Z,18.56
2022-09-02T06:05:17.546Z,18.63
2022-09-02T06:07:45.927Z,18.65
2022-09-02T06:10:14.313Z,18.69
2022-09-02T06:12:43.216Z,18.96
2022-09-02T06:15:15.320Z,19.48
2022-09-02T06:17:43.641Z,18.97
2022-09-02T06:20:12.266Z,19.53
2022-09-02T06:22:40.609Z,19.30
2022-09-02T06:25:09.177Z,19.83
2022-09-02T06:27:38.619Z,19.39
2022-09-02T06:30:08.431Z,19.31
2022-09-02T06:32:38.175Z,19.61
2022-09-02T06:35:08.669Z,18.80
2022-09-02T06:37:36.752Z,19.84
2022-09-02T06:40:06.375Z,19.51
2022-09-02T06:42:35.002Z,20.02
2022-09-02T06:45:03.707Z,19.81
2022-09-02T06:47:32.709Z,19.32
2022-09-02T06:50:02.817Z,20.42
2022-09-02T06:52:31.224Z,19.90
2022-09-02T06:54:59.568Z,19.44
2022-09-02T06:57:33.934Z,20.29
2022-09-02T07:00:03.716Z,20.06
2022-09-02T07:02:32.051Z,19.75
2022-09-02T07:05:15.081Z,19.93
2022-09-02T07:07:48.117Z,20.54
2022-09-02T07:10:16.579Z,20.52
2022-09-02T07:12:45.032Z,20.37
2022-09-02T07:15:13.641Z,20.05
2022-09-02T07:17:42.148Z,20.11
2022-09-02T07:20:11.471Z,20.60
2022-09-02T07:22:40.047Z,20.62
2022-09-02T07:25:11.147Z,20.73
2022-09-02T07:27:39.466Z,20.49
2022-09-02T07:30:08.876Z,21.30
2022-09-02T07:32:37.356Z,22.16
2022-09-02T07:35:07.743Z,21.00
2022-09-02T07:37:37.001Z,20.87
2022-09-02T07:40:07.136Z,20.73
2022-09-02T07:42:36.925Z,20.82
2022-09-02T07:45:06.757Z,20.91
2022-09-02T07:47:35.119Z,20.79
2022-09-02T07:50:16.374Z,21.25
2022-09-02T07:52:45.256Z,21.25
2022-09-02T07:55:15.027Z,21.49
2022-09-02T07:57:45.052Z,21.68
2022-09-02T08:00:14.904Z,21.37
2022-09-02T08:02:44.499Z,21.60
2022-09-02T08:05:14.365Z,21.09
2022-09-02T08:07:43.050Z,21.23
2022-09-02T08:10:12.995Z,21.30
2022-09-02T08:15:30.247Z,21.03
2022-09-02T08:17:59.897Z,21.20
2022-09-02T08:20:30.493Z,21.95
2022-09-02T08:23:10.670Z,22.22
2022-09-02T08:25:47.185Z,21.77
2022-09-02T08:28:15.902Z,21.80
2022-09-02T08:30:46.005Z,21.61
2022-09-02T08:33:14.422Z,22.44
2022-09-02T08:35:42.770Z,22.21
2022-09-02T08:38:11.100Z,22.51
2022-09-02T08:40:41.856Z,22.46
2022-09-02T08:43:22.136Z,22.98
2022-09-02T08:45:54.309Z,22.22
2022-09-02T08:48:27.111Z,22.90
2022-09-02T08:51:00.713Z,22.56
2022-09-02T08:53:32.205Z,23.26
2022-09-02T08:56:01.980Z,23.05
2022-09-02T08:58:34.089Z,23.46
2022-09-02T09:01:08.047Z,23.18
2022-09-02T09:03:41.078Z,22.87
2022-09-02T09:06:15.277Z,22.84
2022-09-02T09:08:51.316Z,22.68
2022-09-02T09:11:24.406Z,22.74
2022-09-02T09:14:05.063Z,22.84
2022-09-02T09:16:41.009Z,23.84
2022-09-02T09:19:15.353Z,23.26
2022-09-02T09:21:45.222Z,23.26
2022-09-02T09:24:23.473Z,23.26
2022-09-02T09:26:51.781Z,23.15
2022-09-02T09:29:20.096Z,23.49
2022-09-02T09:31:52.754Z,23.92
2022-09-02T09:34:21.077Z,23.63
2022-09-02T09:36:55.940Z,24.34
2022-09-02T09:39:26.751Z,24.76
2022-09-02T09:41:57.405Z,24.18
2022-09-02T09:44:45.514Z,23.51
2022-09-02T09:47:20.519Z,24.33
2022-09-02T09:49:50.905Z,24.16
2022-09-02T09:52:26.109Z,24.06
2022-09-02T09:55:15.752Z,23.66
2022-09-02T09:57:53.270Z,24.20
2022-09-02T10:00:23.728Z,25.12
2022-09-02T10:02:53.846Z,24.47
2022-09-02T10:05:36.490Z,24.43
2022-09-02T10:08:10.027Z,24.23
2022-09-02T10:10:58.108Z,24.56
2022-09-02T10:13:29.219Z,24.35
2022-09-02T10:16:16.444Z,24.52
2022-09-02T10:18:49.394Z,24.87
2022-09-02T10:21:28.271Z,25.11
2022-09-02T10:24:00.941Z,25.09
2022-09-02T10:26:37.439Z,25.21
2022-09-02T10:29:28.925Z,25.78
2022-09-02T10:32:11.255Z,25.38
2022-09-02T10:34:46.511Z,25.43
2022-09-02T10:37:19.141Z,25.41
2022-09-02T10:40:03.379Z,25.46
2022-09-02T10:42:37.048Z,25.41
2022-09-02T10:45:11.748Z,25.61
2022-09-02T10:47:41.172Z,25.56
2022-09-02T10:50:17.786Z,26.17
2022-09-02T10:53:07.343Z,25.80
2022-09-02T10:55:43.161Z,25.21
2022-09-02T10:58:15.612Z,25.53
2022-09-02T11:00:45.713Z,25.69
2022-09-02T11:03:16.270Z,25.21
2022-09-02T11:05:49.559Z,25.56
2022-09-02T11:08:29.591Z,25.55
2022-09-02T11:11:04.663Z,25.67
2022-09-02T11:13:39.009Z,25.08
2022-09-02T11:16:15.249Z,25.61
2022-09-02T11:18:48.292Z,24.97
2022-09-02T11:21:32.009Z,25.79
2022-09-02T11:24:05.500Z,25.52
2022-09-02T11:26:38.340Z,25.70
2022-09-02T11:29:11.533Z,25.59
2022-09-02T11:31:44.637Z,25.70
2022-09-02T11:34:21.896Z,26.08
2022-09-02T11:36:51.743Z,25.47
2022-09-02T11:39:36.513Z,25.38
2022-09-02T11:42:22.678Z,25.92
2022-09-02T11:45:13.634Z,25.77
2022-09-02T11:48:14.812Z,25.43
2022-09-02T11:51:16.730Z,25.28
2022-09-02T11:53:47.302Z,26.46
2022-09-02T11:56:19.613Z,26.81
2022-09-02T11:58:49.578Z,26.57
2022-09-02T12:01:25.818Z,26.60
2022-09-02T12:04:48.464Z,26.66
2022-09-02T12:07:20.319Z,26.94
2022-09-02T12:09:55.371Z,26.28
2022-09-02T12:13:00.419Z,26.52
2022-09-02T12:15:32.422Z,25.93
2022-09-02T12:18:30.261Z,25.63
2022-09-02T12:21:08.584Z,26.44
2022-09-02T12:24:19.624Z,26.78
2022-09-02T12:27:19.542Z,26.57
2022-09-02T12:29:47.890Z,26.46
2022-09-02T12:32:59.145Z,26.26
2022-09-02T12:35:37.179Z,26.49
2022-09-02T12:38:32.794Z,27.39
2022-09-02T12:41:27.704Z,26.86
2022-09-02T12:44:28.776Z,26.77
2022-09-02T12:47:03.277Z,26.55
2022-09-02T12:49:54.114Z,27.50
2022-09-02T12:52:48.414Z,26.50
2022-09-02T12:55:22.610Z,27.20
2022-09-02T12:57:52.417Z,26.94
2022-09-02T13:00:29.040Z,26.53
2022-09-02T13:03:09.187Z,27.06
2022-09-02T13:05:50.737Z,26.51
2022-09-02T13:08:50.347Z,26.89
2022-09-02T13:11:50.017Z,27.14
2022-09-02T13:14:45.440Z,26.76
2022-09-02T13:17:39.430Z,26.69
2022-09-02T13:20:47.138Z,27.03
2022-09-02T13:23:43.155Z,26.89
2022-09-02T13:26:49.801Z,27.00
2022-09-02T13:29:45.767Z,27.76
2022-09-02T13:32:16.812Z,27.41
2022-09-02T13:34:46.169Z,27.27
2022-09-02T13:37:33.390Z,27.37
2022-09-02T13:40:03.500Z,26.98
2022-09-02T13:42:33.111Z,26.63
2022-09-02T13:45:12.434Z,26.93
2022-09-02T13:47:43.911Z,26.73
2022-09-02T13:50:13.744Z,27.74
2022-09-02T13:53:34.561Z,26.97
2022-09-02T13:55:32.592Z,26.71
2022-09-02T13:58:03.602Z,26.79
2022-09-02T14:00:34.957Z,26.71
2022-09-02T14:03:05.592Z,27.31
2022-09-02T14:05:36.654Z,27.15
2022-09-02T14:08:08.451Z,26.64
2022-09-02T14:10:39.079Z,26.55
2022-09-02T14:13:08.778Z,26.79
2022-09-02T14:15:37.390Z,27.67
2022-09-02T14:18:17.855Z,26.96
2022-09-02T14:21:00.306Z,27.55
2022-09-02T14:23:33.445Z,27.57
2022-09-02T14:26:03.183Z,27.23
2022-09-02T14:28:33.088Z,27.75
2022-09-02T14:31:03.012Z,27.23
2022-09-02T14:33:42.671Z,27.55
2022-09-02T14:36:14.347Z,27.49
2022-09-02T14:38:55.421Z,26.98
2022-09-02T14:41:25.321Z,27.54
2022-09-02T14:43:56.531Z,27.87
2022-09-02T14:46:29.651Z,27.80
2022-09-02T14:49:03.226Z,27.68
2022-09-02T14:51:36.253Z,28.03
2022-09-02T14:54:07.474Z,26.97
2022-09-02T14:56:50.483Z,27.84
2022-09-02T14:59:20.132Z,27.18
2022-09-02T15:01:51.643Z,27.63
2022-09-02T15:04:20.711Z,27.69
2022-09-02T15:06:49.428Z,26.54
2022-09-02T15:09:19.632Z,27.28
2022-09-02T15:11:51.198Z,27.38
2022-09-02T15:14:19.544Z,27.65
2022-09-02T15:16:48.602Z,27.39
2022-09-02T15:19:17.001Z,27.52
2022-09-02T15:21:45.373Z,27.13
2022-09-02T15:24:14.167Z,27.66
2022-09-02T15:26:44.139Z,27.17
2022-09-02T15:29:13.813Z,26.84
2022-09-02T15:31:42.262Z,27.52
2022-09-02T15:34:10.715Z,27.17
2022-09-02T15:36:39.322Z,27.19
2022-09-02T15:39:07.592Z,27.36
2022-09-02T15:41:36.423Z,27.16
2022-09-02T15:44:09.357Z,27.53
2022-09-02T15:46:38.573Z,27.54
2022-09-02T15:49:08.828Z,27.37
2022-09-02T15:51:39.126Z,27.51
2022-09-02T15:54:07.608Z,27.42
2022-09-02T15:56:37.235Z,27.20
2022-09-02T15:59:09.248Z,26.96
2022-09-02T16:01:38.840Z,27.05
2022-09-02T16:04:08.181Z,26.88
2022-09-02T16:06:39.512Z,27.06
2022-09-02T16:09:08.024Z,27.21
2022-09-02T16:11:38.498Z,26.39
2022-09-02T16:14:08.488Z,26.39
2022-09-02T16:16:37.042Z,26.33
2022-09-02T16:19:07.112Z,26.66
2022-09-02T16:21:35.979Z,26.52
2022-09-02T16:24:04.581Z,26.52
2022-09-02T16:26:33.747Z,26.35
2022-09-02T16:29:03.957Z,26.64
2022-09-02T16:31:38.203Z,26.54
2022-09-02T16:34:08.200Z,26.49
2022-09-02T16:36:39.094Z,26.50
2022-09-02T16:39:08.080Z,26.20
2022-09-02T16:41:38.107Z,26.06
2022-09-02T16:44:08.231Z,26.79
2022-09-02T16:46:40.528Z,26.46
2022-09-02T16:49:09.598Z,26.20
2022-09-02T16:51:40.899Z,26.03
2022-09-02T16:54:21.066Z,25.94
2022-09-02T16:56:59.074Z,25.80
2022-09-02T16:59:27.395Z,25.70
2022-09-02T17:01:57.137Z,26.30
2022-09-02T17:04:25.631Z,25.41
2022-09-02T17:06:54.091Z,25.32
2022-09-02T17:09:22.419Z,25.85
2022-09-02T17:11:50.715Z,25.78
2022-09-02T17:14:22.674Z,25.55
2022-09-02T17:16:52.101Z,25.27
2022-09-02T17:19:22.510Z,25.72
2022-09-02T17:21:52.171Z,25.35
2022-09-02T17:24:22.596Z,25.05
2022-09-02T17:26:51.504Z,25.58
2022-09-02T17:29:47.414Z,25.95
2022-09-02T17:32:09.970Z,26.26
2022-09-02T17:34:39.737Z,25.91
2022-09-02T17:37:08.161Z,25.52
2022-09-02T17:39:36.679Z,25.89
2022-09-02T17:42:06.453Z,25.80
2022-09-02T17:44:36.479Z,25.24
2022-09-02T17:47:06.566Z,25.07
2022-09-02T17:49:36.549Z,24.91
2022-09-02T17:52:07.723Z,24.82
2022-09-02T17:54:36.918Z,24.56
2022-09-02T17:57:11.156Z,24.68
2022-09-02T17:59:51.865Z,24.63
2022-09-02T18:02:38.503Z,24.12
2022-09-02T18:05:13.671Z,24.47
2022-09-02T18:07:49.890Z,24.45
2022-09-02T18:10:19.187Z,24.66
2022-09-02T18:12:48.071Z,24.56
2022-09-02T18:15:18.464Z,24.05
2022-09-02T18:17:49.027Z,23.91
2022-09-02T18:20:24.841Z,23.88
2022-09-02T18:23:20.884Z,24.01
2022-09-02T18:25:54.394Z,23.70
2022-09-02T18:28:39.056Z,23.84
2022-09-02T18:31:15.380Z,23.56
2022-09-02T18:33:53.974Z,23.44
2022-09-02T18:36:31.050Z,23.75
2022-09-02T18:39:15.077Z,23.52
2022-09-02T18:41:55.145Z,22.71
2022-09-02T18:44:30.855Z,22.93
2022-09-02T18:47:01.891Z,23.17
2022-09-02T18:49:33.930Z,23.46
2022-09-02T18:52:05.394Z,23.37
2022-09-02T18:54:43.694Z,23.45
2022-09-02T18:57:12.014Z,22.81
2022-09-02T18:59:45.007Z,23.28
2022-09-02T19:02:23.836Z,23.04
2022-09-02T19:04:52.273Z,23.11
2022-09-02T19:07:38.630Z,23.10
2022-09-02T19:10:09.787Z,23.17
2022-09-02T19:12:39.140Z,22.88
2022-09-02T19:15:10.036Z,22.62
2022-09-02T19:17:41.979Z,22.37
2022-09-02T19:20:11.034Z,22.09
2022-09-02T19:22:42.190Z,22.50
2022-09-02T19:25:15.001Z,22.71
2022-09-02T19:27:45.275Z,22.25
2022-09-02T19:30:15.725Z,22.48
2022-09-02T19:32:45.304Z,22.58
2022-09-02T19:35:16.718Z,22.14
2022-09-02T19:37:47.028Z,22.10
2022-09-02T19:40:20.473Z,22.42
2022-09-02T19:42:49.120Z,22.52
2022-09-02T19:45:17.596Z,22.41
2022-09-02T19:50:34.420Z,22.15
2022-09-02T19:53:02.831Z,21.85
2022-09-02T19:55:33.583Z,21.92
2022-09-02T19:58:02.019Z,21.78
2022-09-02T20:00:31.787Z,21.77
2022-09-02T20:03:00.317Z,21.36
2022-09-02T20:05:28.642Z,21.26
2022-09-02T20:07:57.040Z,21.42
2022-09-02T20:10:28.092Z,21.39
2022-09-02T20:13:00.173Z,21.18
2022-09-02T20:15:28.449Z,21.39
2022-09-02T20:18:04.624Z,21.47
2022-09-02T20:20:33.282Z,21.71
2022-09-02T20:23:01.652Z,21.79
2022-09-02T20:25:36.668Z,21.75
2022-09-02T20:28:14.033Z,21.64
2022-09-02T20:30:44.577Z,21.38
2022-09-02T20:33:17.406Z,21.51
2022-09-02T20:35:58.082Z,21.68
2022-09-02T20:38:33.933Z,21.54
2022-09-02T20:41:09.422Z,21.24
2022-09-02T20:44:06.901Z,21.16
2022-09-02T20:46:48.066Z,21.16
2022-09-02T20:49:27.060Z,21.07
2022-09-02T20:52:00.813Z,21.02
2022-09-02T20:54:37.751Z,20.95
2022-09-02T20:57:16.638Z,20.66
2022-09-02T20:59:54.895Z,20.78
2022-09-02T21:02:27.110Z,20.73
2022-09-02T21:05:00.903Z,20.65
2022-09-02T21:07:34.114Z,20.57
2022-09-02T21:10:07.479Z,20.53
2022-09-02T21:12:41.212Z,20.58
2022-09-02T21:15:21.989Z,20.69
2022-09-02T21:17:52.713Z,20.81
2022-09-02T21:20:23.783Z,20.85
2022-09-02T21:22:56.519Z,20.84
2022-09-02T21:25:28.379Z,20.80
2022-09-02T21:27:59.247Z,20.77
2022-09-02T21:30:34.007Z,20.60
2022-09-02T21:33:07.039Z,20.69
2022-09-02T21:35:39.443Z,20.60
2022-09-02T21:38:11.660Z,20.57
2022-09-02T21:40:48.250Z,20.30
2022-09-02T21:43:35.887Z,20.51
2022-09-02T21:46:12.887Z,20.34
2022-09-02T21:48:53.422Z,20.37
2022-09-02T21:51:29.890Z,20.50
2022-09-02T21:54:17.310Z,20.27
2022-09-02T21:56:58.627Z,20.28
2022-09-02T21:59:39.553Z,20.47
2022-09-02T22:02:11.890Z,20.46
2022-09-02T22:04:52.847Z,20.15
2022-09-02T22:07:25.193Z,20.35
2022-09-02T22:10:02.441Z,20.38
2022-09-02T22:12:32.643Z,20.14
2022-09-02T22:15:07.791Z,20.30
2022-09-02T22:17:45.804Z,20.23
2022-09-02T22:20:16.649Z,20.42
2022-09-02T22:22:54.324Z,20.06
2022-09-02T22:25:23.228Z,20.25
2022-09-02T22:27:56.941Z,20.08
2022-09-02T22:30:25.513Z,20.31
2022-09-02T22:33:02.624Z,20.10
2022-09-02T22:35:35.265Z,20.00
2022-09-02T22:38:10.618Z,20.04
2022-09-02T22:40:43.647Z,19.79
2022-09-02T22:43:15.037Z,19.48
2022-09-02T22:46:04.581Z,19.45
2022-09-02T22:48:56.306Z,19.47
2022-09-02T22:52:01.203Z,19.38
2022-09-02T22:54:32.059Z,19.58
2022-09-02T22:57:06.316Z,19.55
2022-09-02T22:59:45.094Z,19.75
2022-09-02T23:02:19.492Z,19.60
2022-09-02T23:05:02.750Z,19.80
2022-09-02T23:07:31.154Z,19.78
2022-09-02T23:10:01.116Z,19.61
2022-09-02T23:12:36.906Z,19.73
2022-09-02T23:15:17.957Z,19.64
2022-09-02T23:17:58.559Z,19.55
2022-09-02T23:20:30.807Z,19.71
2022-09-02T23:23:09.289Z,19.80
2022-09-02T23:25:48.219Z,19.54
2022-09-02T23:28:19.101Z,19.78
2022-09-02T23:30:53.705Z,19.87
2022-09-02T23:33:35.559Z,19.67
2022-09-02T23:36:12.759Z,19.99
2022-09-02T23:39:05.431Z,19.88
2022-09-02T23:41:36.255Z,19.81
2022-09-02T23:44:06.829Z,19.82
2022-09-02T23:46:46.273Z,19.90
2022-09-02T23:49:22.824Z,19.68
2022-09-02T23:51:57.864Z,19.73
2022-09-02T23:54:36.989Z,19.79
2022-09-02T23:57:29.897Z,19.89
